weather.gov     
National Weather Service

Terminal Aerodrome Forecast
NWS Homepage
This page is being discontinued on March 12, 2014.
The same data is available at this site. Please update your bookmarks.
Thank you, and we apologize for the inconvenience.
Please send an email to SR-SRH.Webmaster@noaa.gov with any concerns.


Current Version
Previous Version:    01  02  03  04  05  06  07  08  09  10  11  12  13  14  15  16  17  18  19  20  21  22  23  24  25  26  27  28  29  
[Printable]
783
FTUS41 KBOX 222338
TAFBAF
TAF
KBAF 222338Z 2300/2324 02013G21KT 2SM RA BR OVC008
     FM230600 01015KT 1SM +RA BR OVC008
     FM231100 01013G23KT 2SM -SHRA BR OVC015
     FM231500 36012G21KT 3SM -SHRA BR OVC020
     FM231800 36012G19KT P6SM -SHRA OVC015
     FM232000 36011G18KT P6SM OVC015=


783
FTUS41 KBOX 222338
TAFBAF
TAF
KBAF 222338Z 2300/2324 02013G21KT 2SM RA BR OVC008
     FM230600 01015KT 1SM +RA BR OVC008
     FM231100 01013G23KT 2SM -SHRA BR OVC015
     FM231500 36012G21KT 3SM -SHRA BR OVC020
     FM231800 36012G19KT P6SM -SHRA OVC015
     FM232000 36011G18KT P6SM OVC015=




U.S. Dept. of Commerce
NOAA National Weather Service
1325 East West Highway
Silver Spring, MD 20910
E-mail: w-nws.webmaster@noaa.gov
Page last modified: May 16, 2007
NATIONAL WEATHER SERVICE: for Safety, for Work, for Fun - FOR LIFE